Time;durP1;ratioP1;P1;durP2;ratioP2;P2;SDS_P1;SDS_P2;PMS_P1;PMS_P2;Temp;Humidity;BMP_temperature;BMP_pressure;BME280_temperature;BME280_humidity;BME280_pressure;Samples;Min_cycle;Max_cycle;Signal;HPM_P1;HPM_P2
2023/09/08 00:00:47;;;;;;;5.53;3.63;;;;;;;16.43;81.08;100881.88;4919247;29;20054;-65
2023/09/08 00:03:51;;;;;;;9.65;4.03;;;;;;;16.43;81.01;100887.16;4918374;29;20047;-64
2023/09/08 00:06:54;;;;;;;5.28;3.40;;;;;;;16.37;80.81;100880.53;4918761;29;20078;-65
2023/09/08 00:09:57;;;;;;;7.55;4.32;;;;;;;16.36;80.56;100880.63;4919129;29;20070;-65
2023/09/08 00:13:01;;;;;;;9.00;3.80;;;;;;;16.32;80.73;100881.81;4919192;29;20079;-65
2023/09/08 00:16:04;;;;;;;9.23;3.90;;;;;;;16.24;80.70;100874.41;4918250;29;20135;-64
2023/09/08 00:19:08;;;;;;;6.07;4.25;;;;;;;16.22;80.66;100877.19;4918258;29;20051;-65
2023/09/08 00:22:12;;;;;;;9.75;4.28;;;;;;;16.12;81.05;100875.31;4918907;29;20123;-65
2023/09/08 00:25:15;;;;;;;7.63;3.83;;;;;;;16.12;80.96;100872.66;4918880;29;20406;-64
2023/09/08 00:28:18;;;;;;;7.82;3.63;;;;;;;16.06;81.20;100873.94;4918979;29;20123;-65
2023/09/08 00:31:22;;;;;;;5.60;3.58;;;;;;;16.01;81.52;100878.66;4918872;29;20522;-65
2023/09/08 00:34:25;;;;;;;7.47;3.85;;;;;;;16.03;81.14;100880.25;4918467;29;20513;-65
2023/09/08 00:37:28;;;;;;;6.88;3.53;;;;;;;15.99;81.13;100881.44;4918575;29;20123;-65
2023/09/08 00:40:32;;;;;;;13.15;4.90;;;;;;;15.96;81.39;100875.53;4906857;29;20054;-65
2023/09/08 00:43:35;;;;;;;9.23;3.60;;;;;;;15.90;81.53;100881.22;4918434;29;20047;-65
2023/09/08 00:46:40;;;;;;;9.90;4.90;;;;;;;15.81;81.51;100883.53;4906772;29;20463;-65
2023/09/08 00:49:43;;;;;;;7.43;3.95;;;;;;;15.82;81.33;100879.09;4896100;29;20051;-65
2023/09/08 00:52:47;;;;;;;10.38;3.72;;;;;;;15.69;81.95;100884.34;4918085;29;20130;-65
2023/09/08 00:55:51;;;;;;;8.77;4.28;;;;;;;15.69;81.79;100883.53;4918156;29;20043;-65
2023/09/08 00:58:54;;;;;;;7.22;3.95;;;;;;;15.63;82.06;100873.34;4918002;29;20099;-65
2023/09/08 01:01:57;;;;;;;5.30;3.60;;;;;;;15.70;81.79;100885.22;4917951;29;20043;-65
2023/09/08 01:05:01;;;;;;;6.60;4.28;;;;;;;15.64;81.77;100881.19;4917898;29;20051;-65
2023/09/08 01:08:06;;;;;;;5.55;4.10;;;;;;;15.56;82.07;100881.69;4905865;29;20096;-64
2023/09/08 01:11:09;;;;;;;7.28;4.07;;;;;;;15.61;81.98;100880.53;4905548;29;20107;-64
2023/09/08 01:14:15;;;;;;;5.85;4.15;;;;;;;15.60;81.40;100882.31;4917827;29;20103;-64
2023/09/08 01:17:23;;;;;;;10.18;4.68;;;;;;;15.42;82.42;100884.41;4917521;29;20079;-65
2023/09/08 01:21:16;;;;;;;7.07;3.60;;;;;;;15.49;81.70;100883.03;4917931;29;20091;-66
2023/09/08 01:25:08;;;;;;;8.10;3.95;;;;;;;15.46;81.61;100899.06;4910946;29;20059;-64
2023/09/08 01:28:15;;;;;;;12.15;4.30;;;;;;;15.42;82.02;100897.59;4917805;29;20410;-65
2023/09/08 01:31:18;;;;;;;9.98;3.72;;;;;;;15.34;82.28;100899.88;4902870;29;20088;-65
2023/09/08 01:34:24;;;;;;;6.47;4.00;;;;;;;15.25;82.48;100897.84;4917211;29;20072;-67
2023/09/08 01:37:28;;;;;;;7.55;4.05;;;;;;;15.38;81.83;100896.09;4905562;29;20459;-63
2023/09/08 01:40:34;;;;;;;6.18;4.32;;;;;;;15.37;81.82;100897.03;4905507;29;20111;-65
2023/09/08 01:43:42;;;;;;;7.68;3.90;;;;;;;15.28;82.38;100890.59;4905119;29;20139;-67
2023/09/08 01:46:47;;;;;;;12.00;4.50;;;;;;;15.28;82.03;100895.00;4917540;29;20147;-65
2023/09/08 01:49:50;;;;;;;8.68;3.90;;;;;;;15.29;81.87;100886.19;4917201;29;20123;-65
2023/09/08 01:52:53;;;;;;;6.53;4.07;;;;;;;15.32;81.37;100881.53;4916524;29;20064;-65
2023/09/08 01:55:56;;;;;;;6.32;3.80;;;;;;;15.22;81.68;100879.59;4917049;29;20046;-65
2023/09/08 01:59:00;;;;;;;7.50;4.18;;;;;;;15.25;81.73;100879.41;4905329;29;20418;-64
2023/09/08 02:02:06;;;;;;;4.32;3.35;;;;;;;15.20;81.67;100882.34;4905025;29;20410;-64
2023/09/08 02:05:09;;;;;;;6.57;3.90;;;;;;;15.23;81.39;100884.78;4916827;29;20039;-64
2023/09/08 02:08:13;;;;;;;10.50;4.68;;;;;;;15.19;81.40;100888.56;4916624;29;20175;-64
2023/09/08 02:11:15;;;;;;;6.55;4.05;;;;;;;15.11;81.75;100882.94;4893728;29;20059;-64
2023/09/08 02:14:19;;;;;;;5.72;3.92;;;;;;;15.02;81.99;100886.19;4916765;29;20130;-64
2023/09/08 02:17:23;;;;;;;5.00;3.63;;;;;;;14.94;82.35;100889.31;4904882;29;20059;-64
2023/09/08 02:20:27;;;;;;;6.57;3.72;;;;;;;14.95;82.52;100888.38;4916392;29;20517;-64
2023/09/08 02:23:30;;;;;;;6.28;3.88;;;;;;;14.97;82.36;100894.38;4916658;29;20110;-64
2023/09/08 02:26:33;;;;;;;5.97;3.65;;;;;;;14.90;82.51;100898.38;4916521;29;20039;-64
2023/09/08 02:29:37;;;;;;;6.90;4.30;;;;;;;14.88;82.27;100902.88;4904913;29;20078;-64
2023/09/08 02:32:42;;;;;;;8.30;4.40;;;;;;;14.87;82.26;100896.78;4904017;29;20051;-64
2023/09/08 02:35:46;;;;;;;8.68;4.25;;;;;;;14.92;81.89;100893.00;4904534;29;20091;-64
2023/09/08 02:48:13;;;;;;;5.22;3.63;;;;;;;14.75;82.50;100899.34;4881891;29;20095;-64
2023/09/08 02:51:17;;;;;;;9.20;4.50;;;;;;;14.70;82.48;100898.78;4915784;29;20051;-64
2023/09/08 02:54:20;;;;;;;9.93;4.50;;;;;;;14.68;82.45;100898.91;4903486;29;20119;-64
2023/09/08 02:57:23;;;;;;;7.38;3.90;;;;;;;14.64;82.28;100900.88;4919367;29;20043;-64
2023/09/08 03:00:27;;;;;;;6.10;3.75;;;;;;;14.64;82.39;100898.25;4908646;29;20043;-64
2023/09/08 03:03:30;;;;;;;7.90;4.35;;;;;;;14.60;82.53;100894.09;4907712;29;20126;-64
2023/09/08 03:06:35;;;;;;;6.88;3.90;;;;;;;14.58;82.66;100897.75;4908223;29;20088;-64
2023/09/08 03:09:38;;;;;;;8.18;4.20;;;;;;;14.54;82.66;100897.13;4920112;29;20051;-64
2023/09/08 03:12:42;;;;;;;6.88;3.92;;;;;;;14.60;82.51;100899.38;4920043;29;20051;-64
2023/09/08 03:15:45;;;;;;;4.93;4.13;;;;;;;14.52;82.48;100899.03;4919851;29;20414;-64
2023/09/08 03:18:48;;;;;;;6.78;3.70;;;;;;;14.51;82.47;100893.84;4920206;29;20063;-64
2023/09/08 03:21:52;;;;;;;6.10;3.97;;;;;;;14.54;82.10;100889.22;4920241;29;20497;-64
2023/09/08 03:24:55;;;;;;;8.95;3.90;;;;;;;14.46;82.43;100890.63;4919848;29;20039;-64
2023/09/08 03:27:59;;;;;;;7.28;4.07;;;;;;;14.43;82.46;100891.66;4908351;29;20486;-64
2023/09/08 03:31:02;;;;;;;7.50;3.88;;;;;;;14.37;82.73;100892.03;4919822;29;20092;-64
2023/09/08 03:34:08;;;;;;;6.45;3.72;;;;;;;14.35;82.59;100892.13;4897597;29;20047;-64
2023/09/08 03:37:11;;;;;;;8.77;4.20;;;;;;;14.33;82.45;100893.19;4907793;29;20100;-64
2023/09/08 03:40:14;;;;;;;6.47;3.70;;;;;;;14.28;82.99;100887.34;4919583;29;20091;-64
2023/09/08 03:43:18;;;;;;;7.07;4.22;;;;;;;14.31;83.02;100889.78;4919779;29;20051;-64
2023/09/08 03:46:21;;;;;;;6.57;4.03;;;;;;;14.28;82.94;100884.72;4907832;29;20095;-64
2023/09/08 03:49:25;;;;;;;5.63;3.97;;;;;;;14.31;82.58;100881.91;4907632;29;20575;-64
2023/09/08 03:52:28;;;;;;;7.45;4.05;;;;;;;14.31;82.17;100882.75;4919328;29;20050;-64
2023/09/08 03:55:32;;;;;;;8.50;4.05;;;;;;;14.14;82.67;100877.69;4919399;29;20051;-65
2023/09/08 03:58:35;;;;;;;;;;;;;;;14.09;82.76;100879.75;4908219;29;20138;-64
2023/09/08 04:01:38;;;;;;;5.47;3.35;;;;;;;14.07;82.90;100885.13;4907663;29;20372;-64
2023/09/08 04:04:41;;;;;;;6.35;3.90;;;;;;;14.04;83.03;100890.56;4919127;29;20079;-68
2023/09/08 04:07:48;;;;;;;7.65;4.00;;;;;;;14.05;83.01;100881.72;4907028;29;20042;-73
2023/09/08 04:10:52;;;;;;;5.38;4.10;;;;;;;13.94;83.23;100889.41;4896709;29;20066;-64
2023/09/08 04:13:55;;;;;;;4.53;3.22;;;;;;;13.88;84.06;100885.38;4918740;29;20050;-64
2023/09/08 04:16:58;;;;;;;10.65;3.67;;;;;;;13.95;83.48;100885.84;4907072;29;20123;-65
2023/09/08 04:20:05;;;;;;;5.45;3.88;;;;;;;13.94;83.42;100878.88;4918818;29;20118;-64
2023/09/08 04:23:08;;;;;;;9.38;3.75;;;;;;;13.84;83.56;100877.75;4907171;29;20050;-65
2023/09/08 04:26:11;;;;;;;5.90;3.90;;;;;;;13.86;83.33;100884.63;4907054;29;20096;-69
2023/09/08 04:29:15;;;;;;;8.80;3.90;;;;;;;13.80;83.58;100884.16;4906766;29;20102;-69
2023/09/08 04:32:18;;;;;;;8.52;4.35;;;;;;;13.89;83.11;100889.69;4918775;29;20119;-68
2023/09/08 04:35:22;;;;;;;7.18;4.07;;;;;;;13.90;82.83;100890.53;4918173;29;20070;-69
2023/09/08 04:38:26;;;;;;;7.18;3.90;;;;;;;13.87;82.75;100893.34;4906828;29;20054;-71
2023/09/08 04:41:29;;;;;;;8.68;3.50;;;;;;;13.66;84.12;100891.06;4918272;29;20477;-66
2023/09/08 04:44:33;;;;;;;6.75;4.10;;;;;;;13.40;85.81;100894.38;4906389;29;20048;-65
2023/09/08 04:47:39;;;;;;;7.45;3.88;;;;;;;13.47;85.17;100885.22;4918020;29;20055;-66
2023/09/08 04:50:42;;;;;;;7.10;4.35;;;;;;;13.57;84.19;100885.53;4905171;29;20107;-66
2023/09/08 04:53:45;;;;;;;;;;;;;;;13.65;83.64;100889.34;4916542;29;20055;-65
2023/09/08 04:56:49;;;;;;;4.88;3.55;;;;;;;13.58;83.86;100889.81;4904800;29;19963;-65
2023/09/08 04:59:52;;;;;;;5.60;3.40;;;;;;;13.65;83.51;100893.78;4916199;29;20522;-65
2023/09/08 05:02:55;;;;;;;11.15;3.60;;;;;;;13.62;83.43;100899.22;4904529;29;20450;-65
2023/09/08 05:05:58;;;;;;;5.60;4.18;;;;;;;13.62;83.66;100894.78;4904243;29;20096;-65
2023/09/08 05:09:16;;;;;;;6.38;4.03;;;;;;;13.51;84.20;100897.22;4916080;29;20451;-65
2023/09/08 05:12:45;;;;;;;6.15;3.38;;;;;;;13.56;83.84;100902.19;4900462;29;20395;-65
2023/09/08 05:15:52;;;;;;;6.63;3.88;;;;;;;13.55;83.87;100897.88;4915322;29;20522;-68
2023/09/08 05:18:55;;;;;;;6.57;3.90;;;;;;;13.57;84.10;100907.38;4903424;29;20135;-65
2023/09/08 05:22:00;;;;;;;8.27;3.80;;;;;;;13.61;83.71;100903.63;4904405;29;20513;-65
2023/09/08 05:25:04;;;;;;;7.38;3.95;;;;;;;13.48;84.17;100913.16;4904479;29;20149;-65
2023/09/08 05:28:08;;;;;;;7.45;3.67;;;;;;;13.50;84.13;100919.19;4904029;29;20070;-65
2023/09/08 05:31:12;;;;;;;6.93;3.72;;;;;;;13.44;84.54;100923.00;4894217;29;20054;-65
2023/09/08 05:34:18;;;;;;;6.07;4.18;;;;;;;13.37;85.83;100921.69;4905927;29;20554;-64
2023/09/08 05:37:22;;;;;;;8.80;4.68;;;;;;;13.44;85.10;100922.16;4903773;29;20562;-65
2023/09/08 05:40:26;;;;;;;7.53;4.07;;;;;;;13.49;85.10;100920.09;4903958;29;20102;-65
2023/09/08 05:43:31;;;;;;;5.63;4.13;;;;;;;13.56;85.18;100924.09;4903999;29;20052;-65
2023/09/08 05:46:36;;;;;;;8.50;4.22;;;;;;;13.61;84.88;100927.28;4915495;29;20570;-65
2023/09/08 05:49:41;;;;;;;6.38;4.47;;;;;;;13.60;85.08;100928.22;4903888;29;20154;-66
2023/09/08 05:52:47;;;;;;;8.02;3.80;;;;;;;13.63;85.37;100937.72;4903515;29;20050;-66
2023/09/08 05:55:50;;;;;;;7.55;3.88;;;;;;;13.75;85.85;100933.50;4915564;29;20043;-65
2023/09/08 05:58:54;;;;;;;11.65;4.22;;;;;;;13.99;85.53;100936.47;4903346;29;20066;-65
2023/09/08 06:01:57;;;;;;;10.35;4.35;;;;;;;14.14;84.37;100933.75;4915034;29;20055;-66
2023/09/08 06:05:01;;;;;;;6.95;3.78;;;;;;;14.32;84.05;100941.44;4914160;29;20051;-65
2023/09/08 06:08:04;;;;;;;;;;;;;;;14.41;83.64;100938.25;4915273;29;20157;-65
2023/09/08 06:11:07;;;;;;;10.07;3.78;;;;;;;14.52;83.04;100935.84;4914877;29;19922;-66
2023/09/08 06:14:12;;;;;;;5.00;3.40;;;;;;;14.56;83.03;100937.34;4903143;29;20043;-66
2023/09/08 06:17:17;;;;;;;6.45;3.67;;;;;;;14.58;82.93;100935.47;4902825;29;20203;-65
2023/09/08 06:20:24;;;;;;;7.85;3.65;;;;;;;14.67;83.33;100936.66;4892386;29;20146;-66
2023/09/08 06:23:28;;;;;;;6.95;3.80;;;;;;;14.76;82.89;100940.50;4903342;29;20470;-65
2023/09/08 06:26:32;;;;;;;9.75;4.50;;;;;;;14.76;83.22;100929.97;4915244;29;20183;-65
2023/09/08 06:29:40;;;;;;;6.93;4.07;;;;;;;14.89;82.69;100936.16;4892226;29;20550;-66
2023/09/08 06:32:44;;;;;;;6.07;3.58;;;;;;;15.00;82.51;100943.38;4902721;29;20051;-66
2023/09/08 06:35:48;;;;;;;7.20;3.30;;;;;;;15.08;81.89;100935.81;4902913;29;20115;-67
2023/09/08 06:38:52;;;;;;;6.43;4.00;;;;;;;15.12;81.90;100937.31;4914785;29;20106;-66
2023/09/08 06:41:57;;;;;;;8.23;4.13;;;;;;;15.03;83.10;100930.88;4901837;29;20055;-65
2023/09/08 06:45:01;;;;;;;6.15;3.60;;;;;;;14.94;83.89;100935.88;4901846;29;20047;-67
2023/09/08 06:48:05;;;;;;;7.10;3.80;;;;;;;15.10;83.92;100933.94;4902390;29;20131;-65
2023/09/08 06:51:09;;;;;;;12.88;4.45;;;;;;;15.11;84.25;100925.09;4902688;29;20206;-67
2023/09/08 06:54:14;;;;;;;7.68;4.07;;;;;;;15.07;85.74;100924.44;4902673;29;20414;-67
2023/09/08 06:57:20;;;;;;;6.85;4.20;;;;;;;15.19;85.44;100927.22;4902531;29;20051;-67
2023/09/08 07:00:25;;;;;;;6.93;3.67;;;;;;;15.31;85.17;100922.00;4891856;29;20104;-67
2023/09/08 07:03:36;;;;;;;6.53;3.92;;;;;;;15.21;86.02;100933.25;4902472;29;20126;-67
2023/09/08 07:06:43;;;;;;;8.82;4.38;;;;;;;15.27;86.75;100938.09;4902456;29;20050;-67
2023/09/08 07:09:47;;;;;;;5.47;3.67;;;;;;;15.20;86.97;100929.75;4902536;29;20102;-67
2023/09/08 07:12:50;;;;;;;7.65;4.20;;;;;;;15.44;86.87;100926.44;4909165;29;20451;-67
2023/09/08 07:15:55;;;;;;;5.40;3.83;;;;;;;15.84;87.64;100919.41;4898863;29;20051;-72
2023/09/08 07:19:00;;;;;;;6.32;3.70;;;;;;;15.82;85.92;100916.00;4927697;29;20478;-67
2023/09/08 07:22:09;;;;;;;5.75;4.07;;;;;;;15.82;86.01;100918.63;4916583;29;20358;-67
2023/09/08 07:30:08;;;;;;;6.60;4.10;;;;;;;16.20;85.25;100915.16;4912298;29;20464;-67
2023/09/08 07:37:54;;;;;;;6.65;4.75;;;;;;;16.40;86.32;100911.13;4901064;29;20092;-67
2023/09/08 07:45:50;;;;;;;5.50;4.20;;;;;;;16.81;84.96;100895.00;4877151;29;20056;-67
2023/09/08 07:49:01;;;;;;;8.10;4.47;;;;;;;16.88;85.47;100909.47;4876443;29;20052;-67
2023/09/08 07:52:15;;;;;;;7.28;4.00;;;;;;;16.96;85.04;100904.44;4876104;29;20573;-67
2023/09/08 07:55:19;;;;;;;5.82;4.20;;;;;;;17.00;84.88;100896.31;4874896;29;20200;-68
2023/09/08 07:58:22;;;;;;;6.03;3.90;;;;;;;17.07;85.16;100897.53;4876864;29;20125;-66
2023/09/08 08:01:26;;;;;;;6.30;4.35;;;;;;;17.17;85.56;100893.28;4874602;29;20189;-66
2023/09/08 08:04:31;;;;;;;11.90;4.60;;;;;;;17.25;85.42;100896.19;4885085;29;20094;-66
2023/09/08 08:07:48;;;;;;;9.48;4.10;;;;;;;17.42;85.49;100892.28;4915642;29;20144;-66
2023/09/08 08:10:53;;;;;;;8.77;4.20;;;;;;;17.53;85.40;100883.53;4914782;29;20439;-66
2023/09/08 08:13:57;;;;;;;4.85;3.60;;;;;;;17.63;86.63;100884.53;4905222;29;20150;-66
2023/09/08 08:17:02;;;;;;;5.65;4.30;;;;;;;17.79;87.40;100887.72;4893829;29;20414;-66
2023/09/08 08:20:16;;;;;;;7.38;4.10;;;;;;;17.82;85.69;100890.13;4916780;29;20047;-66
2023/09/08 08:23:21;;;;;;;8.68;4.75;;;;;;;17.93;86.70;100886.63;4895225;29;20067;-68
2023/09/08 08:26:28;;;;;;;10.35;5.35;;;;;;;18.16;87.21;100891.97;4898222;29;20050;-67
2023/09/08 08:29:31;;;;;;;11.32;4.85;;;;;;;18.36;86.30;100881.47;4912789;29;20103;-67
2023/09/08 08:32:36;;;;;;;5.43;4.05;;;;;;;18.56;85.79;100871.09;4901800;29;20123;-66
2023/09/08 08:35:57;;;;;;;;;;;;;;;18.66;84.67;100874.69;4893999;29;20064;-66
2023/09/08 08:39:06;;;;;;;8.35;4.80;;;;;;;18.74;84.14;100874.94;4879482;29;19926;-68
2023/09/08 08:42:11;;;;;;;6.03;3.83;;;;;;;18.89;84.27;100877.31;4887989;29;20527;-67
2023/09/08 08:45:19;;;;;;;6.43;4.55;;;;;;;19.01;82.96;100871.00;4862390;29;20052;-67
2023/09/08 08:48:32;;;;;;;9.57;4.72;;;;;;;19.19;82.47;100868.66;4878646;29;20064;-73
2023/09/08 08:51:38;;;;;;;9.00;4.80;;;;;;;19.32;83.16;100871.13;4864638;29;20044;-69
2023/09/08 08:54:50;;;;;;;6.18;4.18;;;;;;;19.35;81.11;100866.41;4877434;29;20097;-69
2023/09/08 08:57:54;;;;;;;9.48;4.50;;;;;;;19.43;81.71;100857.78;4878190;29;20080;-69
2023/09/08 09:00:59;;;;;;;5.15;4.45;;;;;;;19.47;80.94;100857.41;4877865;29;20059;-69
2023/09/08 09:04:06;;;;;;;6.25;4.28;;;;;;;19.68;79.40;100854.78;4894669;29;20050;-69
2023/09/08 09:07:11;;;;;;;7.90;4.85;;;;;;;19.73;79.13;100852.59;4912017;29;20051;-69
2023/09/08 09:10:17;;;;;;;7.97;4.90;;;;;;;19.90;77.31;100858.25;4916512;29;20055;-69
2023/09/08 09:13:21;;;;;;;9.70;4.18;;;;;;;19.95;77.83;100850.75;4916221;29;20491;-69
2023/09/08 09:16:24;;;;;;;8.25;4.95;;;;;;;20.04;77.68;100844.63;4920537;29;20135;-69
2023/09/08 09:19:28;;;;;;;11.60;4.35;;;;;;;20.31;77.63;100851.16;4921758;29;20099;-69
2023/09/08 09:22:37;;;;;;;9.68;4.45;;;;;;;20.41;77.11;100846.69;4915991;29;20614;-69
2023/09/08 09:25:40;;;;;;;6.20;4.25;;;;;;;20.42;76.51;100843.06;4917474;29;20402;-69
2023/09/08 09:28:48;;;;;;;10.00;4.53;;;;;;;20.59;75.87;100845.09;4934609;29;20470;-69
2023/09/08 09:31:56;;;;;;;8.93;4.90;;;;;;;20.64;75.40;100842.03;4932137;29;20103;-69
2023/09/08 09:35:00;;;;;;;7.00;4.40;;;;;;;20.72;75.44;100841.34;4909828;29;20119;-69
2023/09/08 09:38:04;;;;;;;11.00;4.82;;;;;;;20.77;76.10;100831.13;4931761;29;20082;-69
2023/09/08 09:41:08;;;;;;;8.30;4.47;;;;;;;20.94;76.24;100826.97;4934037;29;20074;-69
2023/09/08 09:44:11;;;;;;;11.43;4.28;;;;;;;21.12;75.79;100820.78;4930979;29;20050;-70
2023/09/08 09:47:16;;;;;;;9.68;4.28;;;;;;;21.24;75.68;100817.97;4934422;29;20441;-69
2023/09/08 09:50:33;;;;;;;10.35;4.72;;;;;;;21.50;76.64;100816.41;4934292;29;20054;-69
2023/09/08 09:53:42;;;;;;;8.00;4.25;;;;;;;21.58;74.85;100811.22;4934431;29;20077;-69
2023/09/08 09:56:47;;;;;;;9.43;4.10;;;;;;;21.85;74.82;100817.56;4933723;29;20138;-71
2023/09/08 09:59:51;;;;;;;10.82;4.50;;;;;;;21.99;73.91;100803.78;4934458;29;20062;-70
2023/09/08 10:03:02;;;;;;;8.88;4.28;;;;;;;22.18;72.13;100802.88;4934326;29;20536;-69
2023/09/08 10:06:06;;;;;;;6.03;3.63;;;;;;;22.08;71.35;100806.53;4934449;29;20098;-70
2023/09/08 10:09:13;;;;;;;11.52;4.38;;;;;;;22.16;71.93;100812.00;4934072;29;20078;-70
2023/09/08 10:12:19;;;;;;;5.60;4.03;;;;;;;22.43;70.13;100800.47;4933586;29;20078;-70
2023/09/08 10:15:24;;;;;;;7.15;4.20;;;;;;;22.59;69.05;100791.78;4933739;29;20079;-69
2023/09/08 10:18:29;;;;;;;10.60;4.72;;;;;;;22.60;69.73;100796.16;4921803;29;20091;-69
2023/09/08 10:21:35;;;;;;;5.97;3.92;;;;;;;22.65;67.48;100799.19;4934259;29;20070;-70
2023/09/08 10:24:43;;;;;;;8.15;4.28;;;;;;;22.81;67.81;100798.50;4922121;29;20074;-70
2023/09/08 10:27:48;;;;;;;6.13;4.40;;;;;;;22.96;67.76;100786.34;4934100;29;20099;-69
2023/09/08 10:30:55;;;;;;;9.48;4.20;;;;;;;22.93;66.80;100782.16;4934339;29;20058;-70
2023/09/08 10:33:59;;;;;;;6.75;3.67;;;;;;;22.94;67.79;100789.19;4916760;29;20470;-69
2023/09/08 10:37:05;;;;;;;10.35;4.32;;;;;;;23.40;65.80;100779.16;4934018;29;20669;-69
2023/09/08 10:40:27;;;;;;;7.25;4.32;;;;;;;23.46;65.10;100774.19;4920834;29;20074;-70
2023/09/08 10:43:30;;;;;;;6.70;4.00;;;;;;;23.51;65.93;100771.88;4895654;29;20051;-70
2023/09/08 10:46:34;;;;;;;5.10;3.33;;;;;;;23.72;63.81;100761.69;4925059;29;20047;-69
2023/09/08 10:49:38;;;;;;;7.45;3.83;;;;;;;23.85;63.13;100761.22;4921190;29;20074;-70
2023/09/08 10:52:42;;;;;;;6.10;3.53;;;;;;;23.83;63.43;100753.38;4932422;29;20054;-70
2023/09/08 10:55:53;;;;;;;8.02;3.90;;;;;;;24.09;62.31;100753.31;4930964;29;20470;-70
2023/09/08 10:59:00;;;;;;;5.68;3.92;;;;;;;24.36;60.52;100754.88;4932008;29;20051;-70
2023/09/08 11:02:04;;;;;;;7.03;4.10;;;;;;;24.66;59.63;100749.91;4933046;29;20055;-70
2023/09/08 11:05:13;;;;;;;8.95;4.20;;;;;;;24.76;59.79;100753.28;4933274;29;20095;-70
2023/09/08 11:08:18;;;;;;;7.32;3.65;;;;;;;24.58;60.85;100749.94;4933266;29;20063;-70
2023/09/08 11:11:21;;;;;;;5.22;3.25;;;;;;;24.64;60.60;100754.59;4932805;29;20506;-70
2023/09/08 11:14:25;;;;;;;7.20;3.47;;;;;;;24.85;59.96;100754.09;4933142;29;20497;-69
2023/09/08 11:17:30;;;;;;;8.10;3.88;;;;;;;25.00;56.88;100747.06;4912753;29;20066;-70
2023/09/08 11:20:37;;;;;;;7.60;3.90;;;;;;;24.92;57.62;100751.59;4918261;29;20078;-70
2023/09/08 11:23:44;;;;;;;12.15;3.72;;;;;;;24.98;57.59;100749.09;4920647;29;20127;-70
2023/09/08 11:26:50;;;;;;;4.68;2.95;;;;;;;24.91;57.57;100748.09;4899431;29;20052;-70
2023/09/08 11:29:53;;;;;;;7.57;4.78;;;;;;;24.82;58.75;100749.94;4926299;29;20147;-70
2023/09/08 11:32:58;;;;;;;10.57;3.97;;;;;;;24.93;58.09;100747.94;4937389;29;20170;-69
2023/09/08 11:36:02;;;;;;;7.82;3.80;;;;;;;25.15;57.54;100741.09;4914841;29;20067;-70
2023/09/08 11:39:06;;;;;;;8.27;3.08;;;;;;;25.15;54.59;100733.88;4917493;29;20046;-70
2023/09/08 11:42:13;;;;;;;4.88;3.50;;;;;;;25.28;56.71;100730.69;4932694;29;20134;-66
2023/09/08 11:45:21;;;;;;;5.78;3.58;;;;;;;25.63;55.15;100728.56;4934222;29;20068;-68
2023/09/08 11:48:28;;;;;;;3.88;3.25;;;;;;;25.74;52.03;100733.53;4927538;29;20042;-67
2023/09/08 11:51:32;;;;;;;5.18;3.20;;;;;;;25.69;54.87;100735.91;4914412;29;20532;-68
2023/09/08 11:54:37;;;;;;;5.15;3.25;;;;;;;25.93;52.58;100726.94;4902043;29;20554;-68
2023/09/08 11:57:43;;;;;;;6.75;3.72;;;;;;;25.74;52.33;100726.31;4908378;29;20055;-69
2023/09/08 12:00:49;;;;;;;7.57;3.38;;;;;;;25.73;53.40;100721.97;4907323;29;20135;-69
2023/09/08 12:03:57;;;;;;;5.05;2.75;;;;;;;25.73;54.66;100719.31;4902258;29;20051;-68
2023/09/08 12:07:04;;;;;;;7.15;3.13;;;;;;;26.01;55.54;100718.88;4921978;29;20445;-70
2023/09/08 12:10:11;;;;;;;7.38;3.08;;;;;;;26.03;54.48;100716.84;4898501;29;20048;-67
2023/09/08 12:13:23;;;;;;;8.45;3.35;;;;;;;26.16;54.69;100711.75;4900178;29;20082;-68
2023/09/08 12:16:26;;;;;;;6.23;3.27;;;;;;;26.36;53.23;100712.13;4910597;29;20462;-67
2023/09/08 12:19:33;;;;;;;12.15;3.45;;;;;;;26.49;53.02;100702.66;4908390;29;20055;-66
2023/09/08 12:22:46;;;;;;;6.60;2.97;;;;;;;26.75;51.89;100704.97;4898351;29;20052;-66
2023/09/08 12:25:53;;;;;;;6.10;3.55;;;;;;;27.07;48.43;100699.28;4898367;29;20491;-66
2023/09/08 12:28:57;;;;;;;6.35;2.92;;;;;;;27.36;49.44;100703.00;4896624;29;20363;-67
2023/09/08 12:32:04;;;;;;;7.82;3.60;;;;;;;27.63;49.10;100704.19;4909768;29;20144;-67
2023/09/08 12:35:08;;;;;;;10.80;3.00;;;;;;;27.87;48.58;100695.00;4912872;29;20518;-66
2023/09/08 12:38:13;;;;;;;4.32;3.05;;;;;;;28.14;47.46;100692.59;4913580;29;20103;-67
2023/09/08 12:41:19;;;;;;;5.90;2.92;;;;;;;28.61;46.84;100693.91;4908214;29;20120;-66
2023/09/08 12:44:22;;;;;;;4.85;2.80;;;;;;;29.09;43.01;100684.16;4898051;29;20095;-66
2023/09/08 12:47:25;;;;;;;4.38;2.53;;;;;;;29.60;40.08;100697.28;4916195;29;20135;-66
2023/09/08 12:50:29;;;;;;;4.72;2.47;;;;;;;29.99;37.69;100689.53;4935025;29;20091;-66
2023/09/08 12:53:36;;;;;;;5.93;2.92;;;;;;;30.09;33.21;100684.59;4934816;29;20055;-66
2023/09/08 12:56:39;;;;;;;3.83;2.65;;;;;;;30.44;32.37;100687.16;4930534;29;20450;-67
2023/09/08 12:59:44;;;;;;;4.68;3.03;;;;;;;30.92;37.21;100678.84;4910427;29;20525;-67
2023/09/08 13:02:49;;;;;;;5.53;2.40;;;;;;;30.93;30.99;100672.44;4907830;29;20090;-67
2023/09/08 13:05:52;;;;;;;5.30;2.88;;;;;;;31.23;33.93;100675.47;4896746;29;20530;-67
2023/09/08 13:08:55;;;;;;;3.67;2.88;;;;;;;31.58;34.01;100673.28;4897100;29;20063;-66
2023/09/08 13:11:59;;;;;;;5.03;2.08;;;;;;;32.06;35.55;100672.84;4890919;29;20055;-67
2023/09/08 13:15:04;;;;;;;3.80;2.75;;;;;;;32.71;32.59;100671.75;4907038;29;20091;-67
2023/09/08 13:18:08;;;;;;;5.28;2.55;;;;;;;33.00;33.78;100670.25;4934852;29;20138;-67
2023/09/08 13:21:11;;;;;;;5.43;2.90;;;;;;;33.65;33.11;100677.84;4935437;29;20103;-67
2023/09/08 13:24:15;;;;;;;5.28;2.72;;;;;;;34.03;31.87;100674.84;4935117;29;20046;-67
2023/09/08 13:27:18;;;;;;;4.15;3.22;;;;;;;34.94;28.42;100664.56;4935010;29;20517;-67
2023/09/08 13:30:26;;;;;;;6.68;3.10;;;;;;;36.62;25.40;100656.09;4923784;29;20640;-67
2023/09/08 13:33:30;;;;;;;6.78;2.50;;;;;;;39.21;24.63;100644.44;4904777;29;20135;-67
2023/09/08 13:36:33;;;;;;;9.50;3.65;;;;;;;42.96;21.71;100638.16;4908657;29;20534;-67
2023/09/08 13:39:37;;;;;;;10.63;3.00;;;;;;;44.27;19.65;100632.94;4908319;29;20051;-68
2023/09/08 13:42:41;;;;;;;3.72;2.90;;;;;;;46.26;17.28;100625.06;4914796;29;20051;-67
2023/09/08 13:45:44;;;;;;;6.75;3.13;;;;;;;46.70;15.53;100620.53;4915976;29;20043;-68
2023/09/08 13:48:47;;;;;;;4.32;2.92;;;;;;;48.15;14.01;100622.91;4904638;29;20051;-68
2023/09/08 13:51:56;;;;;;;3.38;2.50;;;;;;;48.71;13.80;100610.94;4915811;29;20091;-67
2023/09/08 13:55:00;;;;;;;4.90;2.53;;;;;;;48.78;14.61;100612.03;4899073;29;20047;-67
2023/09/08 13:58:04;;;;;;;4.40;2.60;;;;;;;49.32;13.11;100609.41;4895353;29;20067;-67
2023/09/08 14:01:07;;;;;;;4.40;2.60;;;;;;;50.35;12.88;100605.09;4900140;29;20095;-68
2023/09/08 14:04:10;;;;;;;6.72;2.55;;;;;;;50.14;13.11;100610.75;4903359;29;20063;-68
2023/09/08 14:07:13;;;;;;;5.85;2.70;;;;;;;50.44;13.18;100603.03;4915551;29;20458;-67
2023/09/08 14:10:17;;;;;;;3.08;2.15;;;;;;;50.86;13.25;100602.78;4915589;29;20134;-67
2023/09/08 14:13:21;;;;;;;5.25;2.22;;;;;;;50.55;13.27;100608.91;4915419;29;20043;-68
2023/09/08 14:16:24;;;;;;;3.30;2.33;;;;;;;49.87;13.87;100604.63;4913240;29;20123;-68
2023/09/08 14:19:28;;;;;;;3.67;2.30;;;;;;;49.97;13.10;100601.47;4902777;29;20071;-68
2023/09/08 14:22:31;;;;;;;4.60;2.38;;;;;;;49.75;13.77;100593.50;4915470;29;20103;-68
2023/09/08 14:25:35;;;;;;;3.78;2.13;;;;;;;49.28;13.78;100593.78;4915290;29;20103;-68
2023/09/08 14:28:39;;;;;;;9.90;2.60;;;;;;;49.35;14.12;100599.59;4915182;29;20095;-69
2023/09/08 14:31:43;;;;;;;6.47;2.65;;;;;;;49.18;14.16;100594.97;4914996;29;20059;-69
2023/09/08 14:34:46;;;;;;;3.90;2.60;;;;;;;48.45;14.26;100589.69;4903430;29;20051;-69
2023/09/08 14:37:49;;;;;;;3.55;2.28;;;;;;;47.69;15.13;100588.41;4914445;29;20047;-69
2023/09/08 14:40:55;;;;;;;8.50;2.67;;;;;;;47.28;15.22;100589.72;4915079;29;20059;-75
2023/09/08 14:44:04;;;;;;;3.42;2.33;;;;;;;48.16;15.11;100576.59;4914495;29;20054;-74